Time;durP1;ratioP1;P1;durP2;ratioP2;P2;SDS_P1;SDS_P2;PMS_P1;PMS_P2;Temp;Humidity;BMP_temperature;BMP_pressure;BME280_temperature;BME280_humidity;BME280_pressure;Samples;Min_cycle;Max_cycle;Signal;HPM_P1;HPM_P2
2022/10/25 00:01:00;;;;;;;36.00;17.87;;;;;;;;;;5024215;28;20046;-63
2022/10/25 00:03:26;;;;;;;37.07;19.60;;;;;;;;;;5008955;28;20050;-62
2022/10/25 00:05:52;;;;;;;31.27;18.07;;;;;;;;;;5008579;28;20046;-62
2022/10/25 00:08:18;;;;;;;33.27;18.67;;;;;;;;;;5008496;28;20085;-62
2022/10/25 00:10:44;;;;;;;35.03;18.83;;;;;;;;;;5008125;28;20041;-62
2022/10/25 00:13:10;;;;;;;36.23;19.00;;;;;;;;;;5008732;28;20046;-62
2022/10/25 00:15:36;;;;;;;36.13;20.67;;;;;;;;;;5008705;28;20095;-62
2022/10/25 00:18:02;;;;;;;33.17;18.33;;;;;;;;;;5014872;28;20049;-62
2022/10/25 00:20:28;;;;;;;40.03;19.20;;;;;;;;;;5027249;28;20680;-62
2022/10/25 00:22:54;;;;;;;40.47;19.13;;;;;;;;;;5028197;28;20045;-62
2022/10/25 00:25:20;;;;;;;40.80;18.90;;;;;;;;;;5030729;28;20045;-62
2022/10/25 00:27:46;;;;;;;40.10;19.13;;;;;;;;;;5031705;28;20581;-63
2022/10/25 00:30:13;;;;;;;36.87;19.23;;;;;;;;;;5032162;28;20045;-62
2022/10/25 00:32:39;;;;;;;40.00;20.03;;;;;;;;;;5014545;28;20053;-62
2022/10/25 00:35:05;;;;;;;36.73;19.80;;;;;;;;;;5011806;28;20064;-62
2022/10/25 00:37:31;;;;;;;42.53;19.40;;;;;;;;;;5011934;28;20085;-62
2022/10/25 00:39:57;;;;;;;40.80;19.13;;;;;;;;;;5011651;28;20089;-62
2022/10/25 00:42:25;;;;;;;39.43;18.93;;;;;;;;;;5011842;28;20857;-62
2022/10/25 00:44:52;;;;;;;33.77;19.30;;;;;;;;;;5011921;28;20052;-62
2022/10/25 00:47:18;;;;;;;36.50;19.03;;;;;;;;;;5010689;28;20534;-62
2022/10/25 00:49:45;;;;;;;34.50;17.40;;;;;;;;;;5031681;28;20085;-62
2022/10/25 00:52:11;;;;;;;38.97;18.97;;;;;;;;;;5031025;28;20042;-62
2022/10/25 00:54:41;;;;;;;32.50;16.87;;;;;;;;;;5031803;28;20102;-62
2022/10/25 00:57:15;;;;;;;39.57;18.50;;;;;;;;;;5031303;28;20099;-63
2022/10/25 00:59:42;;;;;;;35.83;17.53;;;;;;;;;;5031455;28;20049;-63
2022/10/25 01:02:08;;;;;;;33.10;16.70;;;;;;;;;;5029959;28;20056;-62
2022/10/25 01:04:34;;;;;;;33.93;17.00;;;;;;;;;;5029943;28;20108;-62
2022/10/25 01:07:01;;;;;;;28.97;16.03;;;;;;;;;;5031463;28;20411;-62
2022/10/25 01:09:29;;;;;;;23.63;14.90;;;;;;;;;;5028107;28;20080;-62
2022/10/25 01:11:55;;;;;;;26.10;14.10;;;;;;;;;;5031200;28;20053;-62
2022/10/25 01:14:21;;;;;;;24.93;14.13;;;;;;;;;;5031054;28;20050;-62
2022/10/25 01:16:47;;;;;;;37.63;14.90;;;;;;;;;;5029615;28;20053;-62
2022/10/25 01:19:25;;;;;;;25.57;14.37;;;;;;;;;;5030406;28;20050;-62
2022/10/25 01:21:54;;;;;;;27.30;13.83;;;;;;;;;;5031307;28;20045;-62
2022/10/25 01:24:32;;;;;;;27.53;12.97;;;;;;;;;;5030915;28;20041;-62
2022/10/25 01:27:03;;;;;;;28.20;13.87;;;;;;;;;;5018259;28;20052;-62
2022/10/25 01:29:29;;;;;;;29.50;13.03;;;;;;;;;;5010706;28;20042;-62
2022/10/25 01:32:16;;;;;;;25.93;12.57;;;;;;;;;;5021842;28;20419;-63
2022/10/25 01:34:50;;;;;;;25.07;13.10;;;;;;;;;;5030840;28;20068;-62
2022/10/25 01:37:16;;;;;;;;;;;;;;;;;;5029461;28;20057;-62
2022/10/25 01:39:42;;;;;;;26.83;12.47;;;;;;;;;;5030702;28;19927;-62
2022/10/25 01:42:27;;;;;;;30.80;12.33;;;;;;;;;;5030516;28;20124;-62
2022/10/25 01:44:59;;;;;;;21.07;12.83;;;;;;;;;;5030797;28;20126;-62
2022/10/25 01:47:39;;;;;;;25.53;13.17;;;;;;;;;;5029975;28;20116;-62
2022/10/25 01:50:05;;;;;;;25.47;12.23;;;;;;;;;;5030617;28;20515;-63
2022/10/25 01:52:31;;;;;;;25.00;12.60;;;;;;;;;;5029822;28;20067;-62
2022/10/25 01:54:57;;;;;;;26.57;12.27;;;;;;;;;;5030184;28;20041;-62
2022/10/25 01:57:33;;;;;;;25.80;12.43;;;;;;;;;;5015757;28;20184;-62
2022/10/25 02:00:02;;;;;;;25.10;13.07;;;;;;;;;;5010284;28;20497;-62
2022/10/25 02:02:47;;;;;;;20.67;12.33;;;;;;;;;;5010391;28;21107;-63
2022/10/25 02:05:20;;;;;;;32.07;11.80;;;;;;;;;;5010443;28;20057;-62
2022/10/25 02:08:05;;;;;;;24.23;11.77;;;;;;;;;;5010509;28;20060;-62
2022/10/25 02:10:35;;;;;;;23.70;13.20;;;;;;;;;;5010268;28;20157;-63
2022/10/25 02:13:03;;;;;;;21.30;11.57;;;;;;;;;;5010133;28;20052;-62
2022/10/25 02:15:32;;;;;;;21.27;12.43;;;;;;;;;;5010177;28;20045;-63
2022/10/25 02:17:59;;;;;;;25.73;11.77;;;;;;;;;;5010089;28;20050;-62
2022/10/25 02:20:26;;;;;;;23.63;12.73;;;;;;;;;;5009859;28;20527;-62
2022/10/25 02:22:53;;;;;;;25.23;12.67;;;;;;;;;;5010145;28;20046;-63
2022/10/25 02:25:20;;;;;;;23.13;12.33;;;;;;;;;;5019573;28;20507;-63
2022/10/25 02:27:46;;;;;;;23.50;12.60;;;;;;;;;;5029454;28;20068;-62
2022/10/25 02:30:12;;;;;;;22.73;12.23;;;;;;;;;;5029712;28;20081;-62
2022/10/25 02:32:39;;;;;;;19.73;12.70;;;;;;;;;;5029435;28;20095;-62
2022/10/25 02:35:05;;;;;;;24.27;11.83;;;;;;;;;;5029318;28;20407;-63
2022/10/25 02:37:31;;;;;;;24.63;12.33;;;;;;;;;;5029339;28;20052;-63
2022/10/25 02:39:58;;;;;;;20.33;12.10;;;;;;;;;;5029385;28;20042;-63
2022/10/25 02:42:24;;;;;;;23.07;12.27;;;;;;;;;;5029047;28;20045;-62
2022/10/25 02:44:50;;;;;;;23.20;13.10;;;;;;;;;;5029654;28;20053;-63
2022/10/25 02:47:16;;;;;;;22.13;12.73;;;;;;;;;;5013210;28;20053;-63
2022/10/25 02:49:42;;;;;;;27.63;13.43;;;;;;;;;;5010294;28;20058;-63
2022/10/25 02:52:08;;;;;;;23.57;14.13;;;;;;;;;;5023016;28;20064;-62
2022/10/25 02:54:34;;;;;;;24.23;12.97;;;;;;;;;;5027070;28;20507;-62
2022/10/25 02:57:00;;;;;;;31.53;13.13;;;;;;;;;;5024108;28;20800;-63
2022/10/25 02:59:28;;;;;;;24.57;14.40;;;;;;;;;;5011755;28;20045;-62
2022/10/25 03:01:54;;;;;;;27.63;13.53;;;;;;;;;;5027197;28;20041;-62
2022/10/25 03:04:20;;;;;;;23.37;14.50;;;;;;;;;;5028516;28;20535;-63
2022/10/25 03:06:46;;;;;;;28.47;15.13;;;;;;;;;;5028969;28;20053;-62
2022/10/25 03:09:12;;;;;;;28.87;15.27;;;;;;;;;;5029034;28;20053;-62
2022/10/25 03:11:38;;;;;;;29.47;15.50;;;;;;;;;;5029276;28;20057;-62
2022/10/25 03:14:04;;;;;;;25.90;14.90;;;;;;;;;;5028726;28;20515;-63
2022/10/25 03:16:30;;;;;;;25.53;13.80;;;;;;;;;;5028953;28;20076;-62
2022/10/25 03:18:57;;;;;;;26.70;14.33;;;;;;;;;;5022957;28;20045;-62
2022/10/25 03:21:23;;;;;;;33.90;14.43;;;;;;;;;;5017760;28;20044;-63
2022/10/25 03:23:49;;;;;;;30.00;14.97;;;;;;;;;;5028114;28;20033;-62
2022/10/25 03:26:15;;;;;;;29.93;14.40;;;;;;;;;;5028104;28;20064;-63
2022/10/25 03:28:41;;;;;;;30.23;15.27;;;;;;;;;;5027179;28;20466;-63
2022/10/25 03:31:15;;;;;;;26.23;14.53;;;;;;;;;;5025412;28;20056;-63
2022/10/25 03:33:41;;;;;;;27.10;15.13;;;;;;;;;;5010117;28;20103;-62
2022/10/25 03:36:08;;;;;;;23.97;13.87;;;;;;;;;;5009975;28;20062;-62
2022/10/25 03:38:34;;;;;;;31.93;15.47;;;;;;;;;;5010474;28;20045;-63
2022/10/25 03:41:00;;;;;;;31.47;16.30;;;;;;;;;;5018861;28;20077;-63
2022/10/25 03:43:26;;;;;;;29.43;14.70;;;;;;;;;;5028525;28;20053;-63
2022/10/25 03:45:52;;;;;;;28.23;15.13;;;;;;;;;;5028394;28;20107;-63
2022/10/25 03:48:18;;;;;;;31.70;15.37;;;;;;;;;;5026536;28;20046;-63
2022/10/25 03:50:44;;;;;;;28.77;14.87;;;;;;;;;;5010704;28;20508;-62
2022/10/25 03:53:11;;;;;;;28.83;14.93;;;;;;;;;;5008657;28;20053;-63
2022/10/25 03:55:37;;;;;;;31.90;14.90;;;;;;;;;;5008476;28;20532;-63
2022/10/25 03:58:03;;;;;;;31.20;14.83;;;;;;;;;;5008876;28;20068;-63
2022/10/25 04:00:29;;;;;;;28.00;13.80;;;;;;;;;;5011827;28;20641;-63
2022/10/25 04:02:59;;;;;;;28.57;15.33;;;;;;;;;;5012936;28;20071;-63
2022/10/25 04:05:26;;;;;;;27.77;14.80;;;;;;;;;;5011976;28;20496;-63
2022/10/25 04:07:52;;;;;;;28.97;14.27;;;;;;;;;;5012766;28;20423;-62
2022/10/25 04:10:18;;;;;;;32.00;13.87;;;;;;;;;;5012725;28;20042;-63
2022/10/25 04:12:45;;;;;;;26.53;14.13;;;;;;;;;;5012542;28;20054;-63
2022/10/25 04:15:11;;;;;;;26.23;13.87;;;;;;;;;;5013142;28;20081;-63
2022/10/25 04:17:37;;;;;;;31.57;13.90;;;;;;;;;;5012234;28;20053;-63
2022/10/25 04:20:04;;;;;;;25.20;13.27;;;;;;;;;;5020138;28;20088;-63
2022/10/25 04:22:30;;;;;;;26.03;12.77;;;;;;;;;;5032039;28;20099;-63
2022/10/25 04:24:56;;;;;;;23.57;12.83;;;;;;;;;;5031997;28;20052;-63
2022/10/25 04:27:22;;;;;;;29.13;13.00;;;;;;;;;;5030758;28;20156;-63
2022/10/25 04:29:48;;;;;;;29.10;13.07;;;;;;;;;;5032030;28;20041;-63
2022/10/25 04:32:14;;;;;;;30.50;12.87;;;;;;;;;;5031901;28;20049;-63
2022/10/25 04:34:40;;;;;;;21.97;11.80;;;;;;;;;;5031914;28;20065;-62
2022/10/25 04:37:06;;;;;;;29.73;12.83;;;;;;;;;;5031800;28;20471;-63
2022/10/25 04:39:32;;;;;;;33.27;12.53;;;;;;;;;;5029320;28;20052;-63
2022/10/25 04:41:58;;;;;;;26.63;12.47;;;;;;;;;;5031668;28;20053;-62
2022/10/25 04:44:24;;;;;;;25.63;11.80;;;;;;;;;;5024233;28;20049;-62
2022/10/25 04:46:50;;;;;;;29.37;12.73;;;;;;;;;;5012248;28;20042;-62
2022/10/25 04:49:17;;;;;;;28.10;13.60;;;;;;;;;;5011840;28;20069;-62
2022/10/25 04:51:43;;;;;;;33.60;12.57;;;;;;;;;;5011595;28;20125;-62
2022/10/25 04:54:11;;;;;;;26.67;12.47;;;;;;;;;;5012047;28;20045;-63
2022/10/25 04:56:37;;;;;;;25.80;12.23;;;;;;;;;;5012748;28;20124;-62
2022/10/25 04:59:03;;;;;;;23.87;11.63;;;;;;;;;;5011892;28;20053;-63
2022/10/25 05:01:29;;;;;;;27.37;11.73;;;;;;;;;;5011651;28;20050;-62
2022/10/25 05:03:55;;;;;;;26.17;12.73;;;;;;;;;;5011435;28;20417;-62
2022/10/25 05:06:24;;;;;;;27.03;12.17;;;;;;;;;;5011241;28;20105;-62
2022/10/25 05:08:50;;;;;;;22.83;11.63;;;;;;;;;;5011421;28;20092;-63
2022/10/25 05:11:17;;;;;;;24.73;10.73;;;;;;;;;;5009821;28;20060;-63
2022/10/25 05:13:43;;;;;;;26.93;11.90;;;;;;;;;;5014619;28;20072;-62
2022/10/25 05:16:21;;;;;;;25.67;12.10;;;;;;;;;;5030428;28;20491;-63
2022/10/25 05:18:48;;;;;;;21.73;10.80;;;;;;;;;;5017472;28;20053;-63
2022/10/25 05:21:14;;;;;;;23.27;10.57;;;;;;;;;;5012487;28;20050;-62
2022/10/25 05:23:40;;;;;;;25.50;11.33;;;;;;;;;;5011065;28;20042;-62
2022/10/25 05:26:08;;;;;;;27.97;10.43;;;;;;;;;;5011242;28;20411;-63
2022/10/25 05:28:35;;;;;;;18.40;10.20;;;;;;;;;;5010646;28;20489;-63
2022/10/25 05:31:14;;;;;;;23.43;10.80;;;;;;;;;;5021942;28;20445;-63
2022/10/25 05:33:40;;;;;;;23.60;10.40;;;;;;;;;;5011155;28;20551;-63
2022/10/25 05:36:06;;;;;;;20.60;10.47;;;;;;;;;;5028679;28;20141;-63
2022/10/25 05:38:32;;;;;;;24.23;10.73;;;;;;;;;;5030238;28;20139;-62
2022/10/25 05:41:00;;;;;;;23.57;11.13;;;;;;;;;;5030072;28;20068;-63
2022/10/25 05:43:26;;;;;;;24.23;10.70;;;;;;;;;;5030691;28;20049;-62
2022/10/25 05:46:00;;;;;;;27.23;10.67;;;;;;;;;;5030521;28;20049;-62
2022/10/25 05:48:26;;;;;;;22.57;9.67;;;;;;;;;;5030601;28;20050;-63
2022/10/25 05:50:52;;;;;;;24.87;12.07;;;;;;;;;;5030611;28;20064;-62
2022/10/25 05:53:19;;;;;;;26.97;12.27;;;;;;;;;;5028837;28;20052;-63
2022/10/25 05:55:45;;;;;;;28.73;11.57;;;;;;;;;;5030060;28;20491;-63
2022/10/25 05:58:11;;;;;;;30.37;11.33;;;;;;;;;;5029976;28;20127;-62
2022/10/25 06:00:37;;;;;;;25.57;11.20;;;;;;;;;;5028515;28;20049;-63
2022/10/25 06:03:03;;;;;;;29.57;11.80;;;;;;;;;;5030077;28;20052;-63
2022/10/25 06:05:29;;;;;;;27.73;12.43;;;;;;;;;;5029702;28;20045;-62
2022/10/25 06:07:55;;;;;;;27.63;11.90;;;;;;;;;;5029912;28;20045;-62
2022/10/25 06:10:21;;;;;;;29.73;12.30;;;;;;;;;;5028642;28;20507;-62
2022/10/25 06:12:47;;;;;;;33.33;12.57;;;;;;;;;;5030287;28;20056;-62
2022/10/25 06:15:13;;;;;;;33.63;12.57;;;;;;;;;;5027914;28;20055;-62
2022/10/25 06:17:39;;;;;;;34.40;13.13;;;;;;;;;;5029716;28;20049;-63
2022/10/25 06:20:05;;;;;;;32.43;12.93;;;;;;;;;;5023992;28;20103;-63
2022/10/25 06:22:31;;;;;;;33.93;12.87;;;;;;;;;;5008172;28;20041;-62
2022/10/25 06:24:57;;;;;;;31.47;13.13;;;;;;;;;;5010149;28;20050;-63
2022/10/25 06:27:23;;;;;;;30.70;11.83;;;;;;;;;;5009634;28;20108;-63
2022/10/25 06:29:49;;;;;;;29.67;11.33;;;;;;;;;;5010087;28;20042;-63
2022/10/25 06:32:15;;;;;;;31.07;12.00;;;;;;;;;;5010024;28;20053;-63
2022/10/25 06:34:41;;;;;;;26.70;12.27;;;;;;;;;;5009379;28;20056;-63
2022/10/25 06:37:07;;;;;;;32.63;13.00;;;;;;;;;;5009872;28;20124;-63
2022/10/25 06:39:33;;;;;;;28.17;12.00;;;;;;;;;;5009392;28;20588;-62
2022/10/25 06:41:59;;;;;;;35.23;11.40;;;;;;;;;;5010146;28;20504;-62
2022/10/25 06:44:25;;;;;;;22.90;11.03;;;;;;;;;;5015467;28;20037;-63
2022/10/25 06:46:52;;;;;;;29.63;12.43;;;;;;;;;;5029295;28;20103;-62
2022/10/25 06:49:18;;;;;;;32.83;11.80;;;;;;;;;;5022416;28;20051;-62
2022/10/25 06:51:44;;;;;;;26.60;11.60;;;;;;;;;;5025653;28;20124;-63
2022/10/25 06:54:10;;;;;;;29.77;11.03;;;;;;;;;;5029044;28;20128;-62
2022/10/25 06:56:36;;;;;;;27.07;11.93;;;;;;;;;;5020050;28;20042;-63
2022/10/25 06:59:02;;;;;;;29.10;13.07;;;;;;;;;;5028827;28;20512;-63
2022/10/25 07:01:29;;;;;;;33.37;11.50;;;;;;;;;;5028433;28;20050;-63
2022/10/25 07:03:55;;;;;;;28.60;11.57;;;;;;;;;;5028616;28;20048;-62
2022/10/25 07:06:24;;;;;;;27.93;11.20;;;;;;;;;;5028464;28;20107;-62
2022/10/25 07:08:55;;;;;;;32.03;11.73;;;;;;;;;;5028564;28;20488;-62
2022/10/25 07:11:21;;;;;;;29.30;11.30;;;;;;;;;;5026690;28;20045;-63
2022/10/25 07:13:47;;;;;;;27.43;11.27;;;;;;;;;;5013629;28;20054;-63
2022/10/25 07:16:15;;;;;;;26.40;10.80;;;;;;;;;;5028799;28;20056;-62
2022/10/25 07:18:41;;;;;;;28.07;10.50;;;;;;;;;;5015904;28;20590;-63
2022/10/25 07:21:11;;;;;;;31.70;11.90;;;;;;;;;;5008696;28;20045;-63
2022/10/25 07:23:41;;;;;;;29.97;10.87;;;;;;;;;;5008574;28;20404;-62
2022/10/25 07:26:12;;;;;;;22.43;10.87;;;;;;;;;;5017981;28;20133;-63
2022/10/25 07:28:38;;;;;;;31.13;10.93;;;;;;;;;;5008838;28;20045;-63
2022/10/25 07:31:05;;;;;;;30.23;12.03;;;;;;;;;;5014088;28;20050;-62
2022/10/25 07:33:31;;;;;;;22.43;11.27;;;;;;;;;;5027874;28;20053;-63
2022/10/25 07:35:57;;;;;;;30.33;10.70;;;;;;;;;;5015207;28;20062;-63
2022/10/25 07:38:23;;;;;;;26.67;11.03;;;;;;;;;;5008518;28;20052;-63
2022/10/25 07:40:54;;;;;;;19.80;10.83;;;;;;;;;;5008790;28;20084;-63
2022/10/25 07:43:20;;;;;;;25.80;10.13;;;;;;;;;;5008582;28;20054;-62
2022/10/25 07:45:46;;;;;;;26.50;10.27;;;;;;;;;;5008570;28;20058;-62
2022/10/25 07:48:12;;;;;;;24.43;10.57;;;;;;;;;;5022157;28;20057;-62
2022/10/25 07:50:38;;;;;;;30.80;9.80;;;;;;;;;;5025330;28;20041;-62
2022/10/25 07:53:04;;;;;;;20.87;9.63;;;;;;;;;;5010928;28;20500;-62
2022/10/25 07:55:30;;;;;;;27.10;10.13;;;;;;;;;;5007594;28;20046;-63
2022/10/25 07:58:00;;;;;;;24.27;9.50;;;;;;;;;;5009252;28;20102;-63
2022/10/25 08:00:27;;;;;;;23.30;11.70;;;;;;;;;;5007653;28;20096;-62
2022/10/25 08:02:53;;;;;;;25.20;10.97;;;;;;;;;;5008132;28;20049;-62
2022/10/25 08:05:19;;;;;;;18.23;10.13;;;;;;;;;;5008153;28;20500;-62
2022/10/25 08:07:45;;;;;;;21.93;10.40;;;;;;;;;;5008676;28;20392;-62
2022/10/25 08:10:11;;;;;;;20.80;11.30;;;;;;;;;;5026528;28;20114;-62
2022/10/25 08:12:37;;;;;;;22.07;10.13;;;;;;;;;;5027658;28;20050;-63
2022/10/25 08:15:03;;;;;;;27.27;10.50;;;;;;;;;;5028143;28;20084;-63
2022/10/25 08:17:29;;;;;;;22.73;10.13;;;;;;;;;;5027498;28;20535;-63
2022/10/25 08:19:55;;;;;;;20.73;10.57;;;;;;;;;;5028086;28;20423;-63
2022/10/25 08:22:21;;;;;;;20.73;10.57;;;;;;;;;;5027602;28;20052;-63
2022/10/25 08:24:47;;;;;;;25.17;10.23;;;;;;;;;;5013909;28;20046;-63
2022/10/25 08:27:13;;;;;;;26.30;10.73;;;;;;;;;;5019823;28;20053;-63
2022/10/25 08:29:39;;;;;;;28.37;10.07;;;;;;;;;;5027302;28;20042;-63
2022/10/25 08:32:05;;;;;;;21.27;8.87;;;;;;;;;;5027084;28;20124;-63
2022/10/25 08:34:31;;;;;;;20.97;8.67;;;;;;;;;;5027405;28;20061;-62
2022/10/25 08:36:57;;;;;;;21.77;8.60;;;;;;;;;;5026700;28;20148;-63
2022/10/25 08:39:23;;;;;;;20.27;9.53;;;;;;;;;;5027780;28;20188;-62
2022/10/25 08:41:49;;;;;;;19.90;8.70;;;;;;;;;;5027650;28;20153;-63
2022/10/25 08:44:19;;;;;;;17.93;8.83;;;;;;;;;;5027596;28;20116;-62
2022/10/25 08:46:45;;;;;;;17.43;8.70;;;;;;;;;;5030832;28;20042;-63
2022/10/25 08:49:11;;;;;;;16.43;8.03;;;;;;;;;;5028983;28;20049;-62
2022/10/25 08:51:39;;;;;;;19.17;8.40;;;;;;;;;;5031199;28;20041;-62
2022/10/25 08:54:10;;;;;;;19.60;7.87;;;;;;;;;;5030591;28;20056;-63
2022/10/25 08:56:36;;;;;;;17.50;7.67;;;;;;;;;;5024189;28;20476;-62
2022/10/25 08:59:04;;;;;;;12.27;6.43;;;;;;;;;;5012463;28;20131;-62
2022/10/25 09:01:38;;;;;;;18.70;7.07;;;;;;;;;;5011406;28;21056;-62
2022/10/25 09:04:04;;;;;;;12.60;6.47;;;;;;;;;;5011336;28;20131;-62
2022/10/25 09:06:32;;;;;;;15.33;6.60;;;;;;;;;;5011429;28;20050;-62
2022/10/25 09:09:05;;;;;;;16.83;5.77;;;;;;;;;;5010953;28;20512;-62
2022/10/25 09:11:32;;;;;;;;;;;;;;;;;;5011122;28;20080;-63
2022/10/25 09:14:21;;;;;;;9.80;4.83;;;;;;;;;;5010946;28;19921;-62
2022/10/25 09:16:47;;;;;;;12.77;4.60;;;;;;;;;;5000749;28;20423;-62
2022/10/25 09:19:19;;;;;;;14.33;5.07;;;;;;;;;;5015272;28;20038;-62
2022/10/25 09:22:05;;;;;;;15.03;4.67;;;;;;;;;;5029187;28;20114;-63
2022/10/25 09:24:46;;;;;;;13.90;4.97;;;;;;;;;;5030558;28;20499;-62
2022/10/25 09:27:23;;;;;;;12.77;4.87;;;;;;;;;;5028959;28;20045;-62
2022/10/25 09:29:58;;;;;;;11.87;5.30;;;;;;;;;;5030569;28;20041;-62
2022/10/25 09:32:36;;;;;;;12.73;4.20;;;;;;;;;;5030156;28;20104;-62
2022/10/25 09:35:03;;;;;;;11.30;4.50;;;;;;;;;;5012209;28;20125;-62
2022/10/25 09:37:33;;;;;;;12.63;5.70;;;;;;;;;;5010826;28;20049;-62
2022/10/25 09:40:01;;;;;;;10.20;5.23;;;;;;;;;;5010816;28;20137;-62
2022/10/25 09:42:27;;;;;;;17.03;4.80;;;;;;;;;;5010098;28;20042;-63
2022/10/25 09:44:58;;;;;;;12.43;4.70;;;;;;;;;;5010471;28;20504;-63
2022/10/25 09:47:27;;;;;;;12.40;6.27;;;;;;;;;;5010297;28;20054;-63
2022/10/25 09:50:18;;;;;;;17.87;4.63;;;;;;;;;;5011624;28;20041;-62
2022/10/25 09:52:44;;;;;;;11.50;4.00;;;;;;;;;;5019402;28;20102;-62
2022/10/25 09:55:32;;;;;;;11.73;4.87;;;;;;;;;;5010179;28;20100;-63
2022/10/25 09:57:58;;;;;;;11.57;4.13;;;;;;;;;;5009509;28;20052;-63
2022/10/25 10:00:24;;;;;;;14.03;4.33;;;;;;;;;;5010274;28;20049;-63
2022/10/25 10:02:50;;;;;;;10.27;3.77;;;;;;;;;;5010455;28;20526;-63
2022/10/25 10:05:18;;;;;;;9.27;3.67;;;;;;;;;;5009862;28;20077;-62
2022/10/25 10:07:45;;;;;;;9.50;3.10;;;;;;;;;;5010093;28;20049;-62
2022/10/25 10:10:13;;;;;;;14.43;3.70;;;;;;;;;;5009915;28;20084;-62
2022/10/25 10:12:46;;;;;;;10.60;3.23;;;;;;;;;;5010059;28;20092;-63
2022/10/25 10:15:24;;;;;;;7.30;2.97;;;;;;;;;;5009607;28;20076;-62
2022/10/25 10:18:09;;;;;;;12.60;3.80;;;;;;;;;;5009447;28;20053;-62
2022/10/25 10:20:35;;;;;;;15.63;3.87;;;;;;;;;;5009948;28;20084;-62
2022/10/25 10:23:01;;;;;;;12.47;3.83;;;;;;;;;;5010951;28;20046;-63
2022/10/25 10:25:27;;;;;;;7.40;3.37;;;;;;;;;;5009784;28;20086;-63
2022/10/25 10:27:56;;;;;;;8.30;3.17;;;;;;;;;;5009687;28;20050;-63
2022/10/25 10:30:27;;;;;;;12.87;4.13;;;;;;;;;;5012199;28;20068;-62
2022/10/25 10:32:59;;;;;;;8.27;2.97;;;;;;;;;;5010748;28;20054;-62
2022/10/25 10:35:26;;;;;;;8.10;3.47;;;;;;;;;;5020074;28;20496;-62
2022/10/25 10:37:52;;;;;;;15.17;4.17;;;;;;;;;;5028160;28;20052;-62
2022/10/25 10:40:18;;;;;;;11.60;3.23;;;;;;;;;;5029019;28;20103;-62
2022/10/25 10:42:44;;;;;;;11.03;3.70;;;;;;;;;;5028889;28;20049;-63
2022/10/25 10:45:11;;;;;;;11.30;3.07;;;;;;;;;;5028843;28;20057;-62
2022/10/25 10:47:49;;;;;;;10.70;3.00;;;;;;;;;;5029128;28;20052;-62
2022/10/25 10:52:53;;;;;;;9.32;3.47;;;;;;;;;;5028944;28;20042;-63
2022/10/25 10:55:23;;;;;;;8.90;3.37;;;;;;;;;;5029101;28;20364;-62
2022/10/25 10:57:51;;;;;;;6.73;2.83;;;;;;;;;;5028640;28;20044;-63
2022/10/25 11:00:35;;;;;;;11.53;3.30;;;;;;;;;;5028732;28;20057;-62
2022/10/25 11:03:01;;;;;;;10.73;3.23;;;;;;;;;;5028617;28;20046;-62
2022/10/25 11:05:28;;;;;;;11.67;3.40;;;;;;;;;;5027093;28;20128;-62
2022/10/25 11:07:55;;;;;;;13.20;2.63;;;;;;;;;;5028190;28;20376;-62
2022/10/25 11:10:23;;;;;;;9.27;2.90;;;;;;;;;;5028372;28;20046;-62
2022/10/25 11:13:03;;;;;;;9.50;2.93;;;;;;;;;;5028266;28;20049;-62
2022/10/25 11:15:33;;;;;;;8.00;3.30;;;;;;;;;;5028149;28;20111;-62
2022/10/25 11:18:02;;;;;;;8.97;3.73;;;;;;;;;;5028218;28;20501;-62
2022/10/25 11:20:50;;;;;;;11.37;3.30;;;;;;;;;;5028218;28;20061;-63
2022/10/25 11:23:19;;;;;;;9.83;3.17;;;;;;;;;;5028006;28;20041;-63
2022/10/25 11:26:08;;;;;;;11.90;3.10;;;;;;;;;;5028157;28;20049;-62
2022/10/25 11:28:41;;;;;;;11.07;2.73;;;;;;;;;;5017311;28;20554;-62
2022/10/25 11:31:28;;;;;;;6.13;2.63;;;;;;;;;;5027934;28;20707;-62
2022/10/25 11:34:17;;;;;;;8.40;2.73;;;;;;;;;;4987454;28;20049;-62
2022/10/25 11:36:46;;;;;;;7.53;2.70;;;;;;;;;;5018116;28;20057;-62
2022/10/25 11:39:27;;;;;;;7.57;2.60;;;;;;;;;;5028433;28;20116;-62
2022/10/25 11:41:56;;;;;;;12.87;3.23;;;;;;;;;;5027771;28;20057;-62
2022/10/25 11:44:41;;;;;;;5.87;2.37;;;;;;;;;;5027923;28;20053;-62
2022/10/25 11:47:13;;;;;;;8.43;2.00;;;;;;;;;;5027903;28;20049;-62
2022/10/25 11:49:57;;;;;;;8.10;1.87;;;;;;;;;;5026659;28;20053;-62
2022/10/25 11:52:42;;;;;;;9.17;2.00;;;;;;;;;;5028082;28;20052;-62
2022/10/25 11:55:27;;;;;;;10.17;2.13;;;;;;;;;;5027836;28;20049;-62
2022/10/25 11:57:53;;;;;;;6.97;2.53;;;;;;;;;;5027204;28;20053;-63
2022/10/25 12:00:23;;;;;;;10.17;2.27;;;;;;;;;;5028115;28;20046;-62
2022/10/25 12:02:52;;;;;;;11.10;2.90;;;;;;;;;;5028141;28;20045;-62
2022/10/25 12:05:36;;;;;;;9.27;2.10;;;;;;;;;;5027666;28;20107;-62
2022/10/25 12:08:21;;;;;;;9.30;2.03;;;;;;;;;;5027394;28;20081;-63
2022/10/25 12:10:56;;;;;;;8.60;1.60;;;;;;;;;;5028218;28;20503;-62
2022/10/25 12:13:28;;;;;;;10.13;1.90;;;;;;;;;;5026384;28;20065;-63
2022/10/25 12:15:55;;;;;;;8.17;2.00;;;;;;;;;;5027142;28;20458;-63
2022/10/25 12:18:39;;;;;;;8.57;2.03;;;;;;;;;;5027332;28;20647;-63
2022/10/25 12:21:06;;;;;;;6.77;1.90;;;;;;;;;;5029995;28;20049;-60
2022/10/25 12:23:38;;;;;;;5.00;1.97;;;;;;;;;;5031295;28;20415;-61
2022/10/25 12:26:06;;;;;;;8.82;2.00;;;;;;;;;;5031619;28;20049;-60
2022/10/25 12:28:43;;;;;;;9.47;1.80;;;;;;;;;;5031060;28;20053;-62
2022/10/25 12:31:24;;;;;;;8.30;1.93;;;;;;;;;;5031671;28;20411;-63
2022/10/25 12:33:57;;;;;;;5.50;2.37;;;;;;;;;;5030814;28;20092;-63
2022/10/25 12:36:26;;;;;;;8.50;1.60;;;;;;;;;;5031119;28;20076;-63
2022/10/25 12:38:52;;;;;;;10.53;1.90;;;;;;;;;;5031104;28;20049;-63
2022/10/25 12:41:21;;;;;;;6.33;2.40;;;;;;;;;;5031150;28;20136;-62
2022/10/25 12:44:06;;;;;;;5.23;1.30;;;;;;;;;;5031643;28;20037;-63
2022/10/25 12:46:38;;;;;;;9.10;2.53;;;;;;;;;;5031185;28;20057;-63
2022/10/25 12:49:13;;;;;;;4.60;2.17;;;;;;;;;;5031269;28;20037;-63
2022/10/25 12:51:58;;;;;;;6.00;1.70;;;;;;;;;;5031376;28;20045;-63
2022/10/25 12:54:35;;;;;;;5.40;1.83;;;;;;;;;;5030983;28;20041;-63
2022/10/25 12:57:19;;;;;;;6.50;2.00;;;;;;;;;;5031221;28;20533;-63
2022/10/25 13:00:04;;;;;;;8.37;1.63;;;;;;;;;;5030905;28;20136;-63
2022/10/25 13:02:42;;;;;;;7.57;2.17;;;;;;;;;;5030784;28;20057;-63
2022/10/25 13:05:27;;;;;;;5.93;1.67;;;;;;;;;;5030510;28;20427;-62
2022/10/25 13:08:01;;;;;;;9.23;2.00;;;;;;;;;;5031108;28;20114;-62
2022/10/25 13:10:31;;;;;;;10.23;1.90;;;;;;;;;;5030851;28;20051;-63
2022/10/25 13:13:01;;;;;;;8.93;1.93;;;;;;;;;;5030882;28;20048;-62
2022/10/25 13:15:35;;;;;;;4.27;1.83;;;;;;;;;;5030833;28;20162;-63
2022/10/25 13:18:03;;;;;;;7.47;1.60;;;;;;;;;;5030074;28;20144;-63
2022/10/25 13:20:35;;;;;;;7.43;1.40;;;;;;;;;;5030417;28;20049;-63
2022/10/25 13:23:21;;;;;;;6.07;1.83;;;;;;;;;;5030552;28;20049;-63
2022/10/25 13:25:47;;;;;;;4.70;1.40;;;;;;;;;;5030367;28;20056;-63
2022/10/25 13:28:13;;;;;;;6.43;1.73;;;;;;;;;;5020358;28;20057;-63
2022/10/25 13:30:39;;;;;;;7.13;1.60;;;;;;;;;;5010100;28;20077;-62
2022/10/25 13:33:18;;;;;;;7.90;2.80;;;;;;;;;;5019272;28;20053;-63
2022/10/25 13:35:44;;;;;;;6.67;1.67;;;;;;;;;;5030382;28;20049;-63
2022/10/25 13:38:15;;;;;;;9.20;2.10;;;;;;;;;;5030212;28;20118;-63
2022/10/25 13:40:41;;;;;;;9.40;2.00;;;;;;;;;;5029177;28;20049;-63
2022/10/25 13:43:17;;;;;;;5.00;1.63;;;;;;;;;;5030427;28;20107;-63
2022/10/25 13:45:45;;;;;;;8.13;1.87;;;;;;;;;;5029998;28;20037;-63
2022/10/25 13:48:14;;;;;;;9.63;2.17;;;;;;;;;;5013758;28;20455;-63
2022/10/25 13:50:43;;;;;;;5.60;1.70;;;;;;;;;;5011427;28;20052;-63
2022/10/25 13:53:21;;;;;;;6.20;1.70;;;;;;;;;;5016906;28;20049;-63
2022/10/25 13:55:55;;;;;;;8.63;1.60;;;;;;;;;;5030113;28;20051;-63
2022/10/25 13:58:30;;;;;;;8.73;1.97;;;;;;;;;;5013846;28;20052;-63
2022/10/25 14:00:58;;;;;;;8.03;1.80;;;;;;;;;;5010471;28;20046;-63
2022/10/25 14:03:26;;;;;;;10.00;1.73;;;;;;;;;;5009966;28;20464;-63
2022/10/25 14:05:56;;;;;;;7.83;1.80;;;;;;;;;;5010067;28;20081;-63
2022/10/25 14:08:30;;;;;;;7.57;1.57;;;;;;;;;;5009241;28;20085;-63
2022/10/25 14:11:03;;;;;;;5.40;2.00;;;;;;;;;;5010702;28;20046;-63
2022/10/25 14:13:33;;;;;;;6.78;2.10;;;;;;;;;;5029553;28;20148;-63
2022/10/25 14:16:01;;;;;;;10.60;2.17;;;;;;;;;;5029727;28;20102;-62
2022/10/25 14:18:28;;;;;;;12.43;1.90;;;;;;;;;;5028436;28;20050;-63
2022/10/25 14:21:04;;;;;;;8.53;1.33;;;;;;;;;;5029260;28;20379;-63
2022/10/25 14:23:32;;;;;;;6.60;1.70;;;;;;;;;;5029340;28;20053;-63
2022/10/25 14:26:00;;;;;;;6.57;1.93;;;;;;;;;;5029449;28;20504;-63
2022/10/25 14:28:27;;;;;;;4.73;1.30;;;;;;;;;;5027761;28;20081;-63
2022/10/25 14:30:55;;;;;;;4.53;1.60;;;;;;;;;;5029442;28;20091;-63
2022/10/25 14:33:25;;;;;;;8.33;2.00;;;;;;;;;;5028906;28;20103;-62
2022/10/25 14:36:10;;;;;;;12.17;2.60;;;;;;;;;;5027716;28;20064;-63
2022/10/25 14:38:37;;;;;;;5.97;1.67;;;;;;;;;;5029156;28;20551;-63
2022/10/25 14:41:10;;;;;;;7.43;1.67;;;;;;;;;;5028839;28;20099;-63